sensor_id;sensor_type;location;lat;lon;timestamp;P1;durP1;ratioP1;P2;durP2;ratioP2
48805;SDS011;34625;47.176;27.548;2023-04-24T00:00:22;5.30;;;3.95;;
48805;SDS011;34625;47.176;27.548;2023-04-24T00:02:48;3.65;;;3.08;;
48805;SDS011;34625;47.176;27.548;2023-04-24T00:05:14;4.35;;;3.17;;
48805;SDS011;34625;47.176;27.548;2023-04-24T00:07:45;6.50;;;3.17;;
48805;SDS011;34625;47.176;27.548;2023-04-24T00:10:11;6.20;;;3.92;;
48805;SDS011;34625;47.176;27.548;2023-04-24T00:12:37;4.90;;;3.92;;
48805;SDS011;34625;47.176;27.548;2023-04-24T00:15:04;7.55;;;4.85;;
48805;SDS011;34625;47.176;27.548;2023-04-24T00:17:31;10.10;;;5.40;;
48805;SDS011;34625;47.176;27.548;2023-04-24T00:19:57;9.43;;;5.68;;
48805;SDS011;34625;47.176;27.548;2023-04-24T00:22:24;8.75;;;5.35;;
48805;SDS011;34625;47.176;27.548;2023-04-24T00:24:51;5.63;;;4.25;;
48805;SDS011;34625;47.176;27.548;2023-04-24T00:27:17;5.55;;;4.30;;
48805;SDS011;34625;47.176;27.548;2023-04-24T00:29:43;7.88;;;4.65;;
48805;SDS011;34625;47.176;27.548;2023-04-24T00:32:09;7.43;;;4.18;;
48805;SDS011;34625;47.176;27.548;2023-04-24T00:34:35;6.28;;;3.92;;
48805;SDS011;34625;47.176;27.548;2023-04-24T00:37:01;5.05;;;3.65;;
48805;SDS011;34625;47.176;27.548;2023-04-24T00:39:27;6.03;;;3.30;;
48805;SDS011;34625;47.176;27.548;2023-04-24T00:41:54;5.93;;;3.88;;
48805;SDS011;34625;47.176;27.548;2023-04-24T00:44:20;7.45;;;4.40;;
48805;SDS011;34625;47.176;27.548;2023-04-24T00:46:46;5.15;;;3.97;;
48805;SDS011;34625;47.176;27.548;2023-04-24T00:49:18;6.05;;;3.53;;
48805;SDS011;34625;47.176;27.548;2023-04-24T00:51:44;5.82;;;3.50;;
48805;SDS011;34625;47.176;27.548;2023-04-24T00:54:12;6.00;;;3.88;;
48805;SDS011;34625;47.176;27.548;2023-04-24T00:56:39;4.32;;;3.92;;
48805;SDS011;34625;47.176;27.548;2023-04-24T00:59:06;8.18;;;4.15;;
48805;SDS011;34625;47.176;27.548;2023-04-24T01:01:32;4.97;;;3.67;;
48805;SDS011;34625;47.176;27.548;2023-04-24T01:03:58;6.15;;;3.50;;
48805;SDS011;34625;47.176;27.548;2023-04-24T01:06:27;8.32;;;3.33;;
48805;SDS011;34625;47.176;27.548;2023-04-24T01:08:54;4.57;;;3.38;;
48805;SDS011;34625;47.176;27.548;2023-04-24T01:11:21;4.10;;;3.35;;
48805;SDS011;34625;47.176;27.548;2023-04-24T01:13:47;6.07;;;3.67;;
48805;SDS011;34625;47.176;27.548;2023-04-24T01:16:14;6.32;;;3.85;;
48805;SDS011;34625;47.176;27.548;2023-04-24T01:18:43;4.45;;;3.25;;
48805;SDS011;34625;47.176;27.548;2023-04-24T01:21:10;5.72;;;3.72;;
48805;SDS011;34625;47.176;27.548;2023-04-24T01:23:38;5.53;;;4.43;;
48805;SDS011;34625;47.176;27.548;2023-04-24T01:26:05;7.32;;;3.70;;
48805;SDS011;34625;47.176;27.548;2023-04-24T01:28:31;6.00;;;3.45;;
48805;SDS011;34625;47.176;27.548;2023-04-24T01:30:57;7.82;;;4.38;;
48805;SDS011;34625;47.176;27.548;2023-04-24T01:33:25;4.72;;;3.78;;
48805;SDS011;34625;47.176;27.548;2023-04-24T01:35:51;5.97;;;3.88;;
48805;SDS011;34625;47.176;27.548;2023-04-24T01:38:17;5.05;;;3.80;;
48805;SDS011;34625;47.176;27.548;2023-04-24T01:40:43;3.88;;;3.47;;
48805;SDS011;34625;47.176;27.548;2023-04-24T01:43:10;4.13;;;3.25;;
48805;SDS011;34625;47.176;27.548;2023-04-24T01:45:37;4.20;;;3.33;;
48805;SDS011;34625;47.176;27.548;2023-04-24T01:48:03;7.70;;;4.28;;
48805;SDS011;34625;47.176;27.548;2023-04-24T01:50:29;10.10;;;4.55;;
48805;SDS011;34625;47.176;27.548;2023-04-24T01:52:56;5.07;;;4.03;;
48805;SDS011;34625;47.176;27.548;2023-04-24T01:55:22;4.10;;;3.55;;
48805;SDS011;34625;47.176;27.548;2023-04-24T01:57:48;4.10;;;3.22;;
48805;SDS011;34625;47.176;27.548;2023-04-24T02:00:15;3.58;;;3.05;;
48805;SDS011;34625;47.176;27.548;2023-04-24T02:02:41;4.63;;;3.80;;
48805;SDS011;34625;47.176;27.548;2023-04-24T02:05:07;5.40;;;3.45;;
48805;SDS011;34625;47.176;27.548;2023-04-24T02:07:38;5.45;;;3.63;;
48805;SDS011;34625;47.176;27.548;2023-04-24T02:10:04;3.42;;;2.72;;
48805;SDS011;34625;47.176;27.548;2023-04-24T02:12:31;4.05;;;3.08;;
48805;SDS011;34625;47.176;27.548;2023-04-24T02:14:57;4.47;;;3.55;;
48805;SDS011;34625;47.176;27.548;2023-04-24T02:17:23;4.68;;;3.47;;
48805;SDS011;34625;47.176;27.548;2023-04-24T02:19:49;4.43;;;2.92;;
48805;SDS011;34625;47.176;27.548;2023-04-24T02:22:16;7.30;;;3.22;;
48805;SDS011;34625;47.176;27.548;2023-04-24T02:24:42;8.90;;;3.47;;
48805;SDS011;34625;47.176;27.548;2023-04-24T02:27:08;5.05;;;3.03;;
48805;SDS011;34625;47.176;27.548;2023-04-24T02:29:34;4.30;;;3.22;;
48805;SDS011;34625;47.176;27.548;2023-04-24T02:32:00;4.85;;;3.20;;
48805;SDS011;34625;47.176;27.548;2023-04-24T02:34:26;4.15;;;3.30;;
48805;SDS011;34625;47.176;27.548;2023-04-24T02:36:52;6.05;;;3.17;;
48805;SDS011;34625;47.176;27.548;2023-04-24T02:39:19;4.75;;;2.85;;
48805;SDS011;34625;47.176;27.548;2023-04-24T02:41:45;5.40;;;3.03;;
48805;SDS011;34625;47.176;27.548;2023-04-24T02:44:12;6.63;;;3.47;;
48805;SDS011;34625;47.176;27.548;2023-04-24T02:46:38;5.57;;;2.92;;
48805;SDS011;34625;47.176;27.548;2023-04-24T02:49:06;5.75;;;2.97;;
48805;SDS011;34625;47.176;27.548;2023-04-24T02:51:32;3.25;;;2.95;;
48805;SDS011;34625;47.176;27.548;2023-04-24T02:53:58;6.97;;;3.22;;
48805;SDS011;34625;47.176;27.548;2023-04-24T02:56:24;5.20;;;3.72;;
48805;SDS011;34625;47.176;27.548;2023-04-24T02:58:51;4.97;;;3.10;;
48805;SDS011;34625;47.176;27.548;2023-04-24T03:01:17;5.80;;;2.80;;
48805;SDS011;34625;47.176;27.548;2023-04-24T03:03:43;4.05;;;3.33;;
48805;SDS011;34625;47.176;27.548;2023-04-24T03:06:09;4.75;;;3.22;;
48805;SDS011;34625;47.176;27.548;2023-04-24T03:08:36;5.30;;;3.28;;
48805;SDS011;34625;47.176;27.548;2023-04-24T03:11:02;5.43;;;3.33;;
48805;SDS011;34625;47.176;27.548;2023-04-24T03:13:28;3.30;;;3.00;;
48805;SDS011;34625;47.176;27.548;2023-04-24T03:15:54;5.03;;;3.45;;
48805;SDS011;34625;47.176;27.548;2023-04-24T03:18:20;4.03;;;3.50;;
48805;SDS011;34625;47.176;27.548;2023-04-24T03:20:48;9.35;;;3.13;;
48805;SDS011;34625;47.176;27.548;2023-04-24T03:23:14;3.78;;;3.15;;
48805;SDS011;34625;47.176;27.548;2023-04-24T03:25:41;5.20;;;3.05;;
48805;SDS011;34625;47.176;27.548;2023-04-24T03:28:09;6.88;;;3.30;;
48805;SDS011;34625;47.176;27.548;2023-04-24T03:30:46;4.47;;;2.95;;
48805;SDS011;34625;47.176;27.548;2023-04-24T03:33:13;5.25;;;2.83;;
48805;SDS011;34625;47.176;27.548;2023-04-24T03:35:47;6.28;;;3.03;;
48805;SDS011;34625;47.176;27.548;2023-04-24T03:38:13;3.50;;;2.72;;
48805;SDS011;34625;47.176;27.548;2023-04-24T03:41:05;3.45;;;2.88;;
48805;SDS011;34625;47.176;27.548;2023-04-24T03:43:42;8.40;;;3.95;;
48805;SDS011;34625;47.176;27.548;2023-04-24T03:46:09;4.03;;;3.63;;
48805;SDS011;34625;47.176;27.548;2023-04-24T03:48:39;4.60;;;3.25;;
48805;SDS011;34625;47.176;27.548;2023-04-24T03:51:07;4.93;;;2.80;;
48805;SDS011;34625;47.176;27.548;2023-04-24T03:53:35;3.30;;;2.67;;
48805;SDS011;34625;47.176;27.548;2023-04-24T03:56:01;3.30;;;2.35;;
48805;SDS011;34625;47.176;27.548;2023-04-24T03:58:29;3.10;;;2.63;;
48805;SDS011;34625;47.176;27.548;2023-04-24T04:00:55;3.53;;;3.03;;
48805;SDS011;34625;47.176;27.548;2023-04-24T04:03:42;4.53;;;3.38;;
48805;SDS011;34625;47.176;27.548;2023-04-24T04:06:08;4.28;;;3.17;;
48805;SDS011;34625;47.176;27.548;2023-04-24T04:08:37;4.35;;;3.38;;
48805;SDS011;34625;47.176;27.548;2023-04-24T04:11:03;5.40;;;2.67;;
48805;SDS011;34625;47.176;27.548;2023-04-24T04:13:29;4.15;;;3.03;;
48805;SDS011;34625;47.176;27.548;2023-04-24T04:15:56;2.78;;;2.58;;
48805;SDS011;34625;47.176;27.548;2023-04-24T04:18:22;3.55;;;2.30;;
48805;SDS011;34625;47.176;27.548;2023-04-24T04:20:48;4.10;;;3.70;;
48805;SDS011;34625;47.176;27.548;2023-04-24T04:23:15;7.57;;;3.38;;
48805;SDS011;34625;47.176;27.548;2023-04-24T04:26:00;4.60;;;3.38;;
48805;SDS011;34625;47.176;27.548;2023-04-24T04:28:39;9.20;;;3.47;;
48805;SDS011;34625;47.176;27.548;2023-04-24T04:31:06;5.43;;;4.10;;
48805;SDS011;34625;47.176;27.548;2023-04-24T04:33:33;5.03;;;3.15;;
48805;SDS011;34625;47.176;27.548;2023-04-24T04:36:01;5.10;;;3.33;;
48805;SDS011;34625;47.176;27.548;2023-04-24T04:38:29;3.67;;;3.17;;
48805;SDS011;34625;47.176;27.548;2023-04-24T04:41:12;7.38;;;3.33;;
48805;SDS011;34625;47.176;27.548;2023-04-24T04:43:40;4.18;;;3.38;;
48805;SDS011;34625;47.176;27.548;2023-04-24T04:46:07;5.07;;;3.40;;
48805;SDS011;34625;47.176;27.548;2023-04-24T04:48:59;3.63;;;2.83;;
48805;SDS011;34625;47.176;27.548;2023-04-24T04:51:25;3.75;;;3.00;;
48805;SDS011;34625;47.176;27.548;2023-04-24T04:53:51;9.35;;;3.83;;
48805;SDS011;34625;47.176;27.548;2023-04-24T04:56:18;6.60;;;3.03;;
48805;SDS011;34625;47.176;27.548;2023-04-24T04:58:45;7.70;;;3.83;;
48805;SDS011;34625;47.176;27.548;2023-04-24T05:01:14;5.18;;;3.38;;
48805;SDS011;34625;47.176;27.548;2023-04-24T05:03:44;4.28;;;3.55;;
48805;SDS011;34625;47.176;27.548;2023-04-24T05:06:13;5.00;;;3.50;;
48805;SDS011;34625;47.176;27.548;2023-04-24T05:08:39;7.95;;;4.00;;
48805;SDS011;34625;47.176;27.548;2023-04-24T05:11:09;8.15;;;3.83;;
48805;SDS011;34625;47.176;27.548;2023-04-24T05:13:36;4.03;;;2.63;;
48805;SDS011;34625;47.176;27.548;2023-04-24T05:16:05;3.50;;;2.80;;
48805;SDS011;34625;47.176;27.548;2023-04-24T05:18:33;4.57;;;2.85;;
48805;SDS011;34625;47.176;27.548;2023-04-24T05:20:59;5.93;;;3.08;;
48805;SDS011;34625;47.176;27.548;2023-04-24T05:23:26;7.65;;;3.35;;
48805;SDS011;34625;47.176;27.548;2023-04-24T05:25:54;5.97;;;3.33;;
48805;SDS011;34625;47.176;27.548;2023-04-24T05:28:20;4.88;;;2.60;;
48805;SDS011;34625;47.176;27.548;2023-04-24T05:30:57;10.23;;;4.03;;
48805;SDS011;34625;47.176;27.548;2023-04-24T05:33:24;8.30;;;4.43;;
48805;SDS011;34625;47.176;27.548;2023-04-24T05:35:50;6.30;;;4.03;;
48805;SDS011;34625;47.176;27.548;2023-04-24T05:38:17;7.18;;;4.20;;
48805;SDS011;34625;47.176;27.548;2023-04-24T05:40:45;10.30;;;3.30;;
48805;SDS011;34625;47.176;27.548;2023-04-24T05:43:11;7.95;;;4.43;;
48805;SDS011;34625;47.176;27.548;2023-04-24T05:45:38;10.95;;;4.97;;
48805;SDS011;34625;47.176;27.548;2023-04-24T05:48:04;5.20;;;3.25;;
48805;SDS011;34625;47.176;27.548;2023-04-24T05:50:31;4.82;;;3.08;;
48805;SDS011;34625;47.176;27.548;2023-04-24T05:52:57;9.77;;;4.07;;
48805;SDS011;34625;47.176;27.548;2023-04-24T05:55:29;6.00;;;4.40;;
48805;SDS011;34625;47.176;27.548;2023-04-24T05:57:56;4.32;;;3.63;;
48805;SDS011;34625;47.176;27.548;2023-04-24T06:00:24;5.72;;;4.25;;
48805;SDS011;34625;47.176;27.548;2023-04-24T06:02:59;5.05;;;4.00;;
48805;SDS011;34625;47.176;27.548;2023-04-24T06:05:26;4.47;;;4.07;;
48805;SDS011;34625;47.176;27.548;2023-04-24T06:07:52;5.53;;;3.45;;
48805;SDS011;34625;47.176;27.548;2023-04-24T06:10:21;9.55;;;4.05;;
48805;SDS011;34625;47.176;27.548;2023-04-24T06:12:48;9.35;;;3.85;;
48805;SDS011;34625;47.176;27.548;2023-04-24T06:15:16;6.60;;;3.75;;
48805;SDS011;34625;47.176;27.548;2023-04-24T06:17:56;6.03;;;3.42;;
48805;SDS011;34625;47.176;27.548;2023-04-24T06:20:23;7.57;;;3.75;;
48805;SDS011;34625;47.176;27.548;2023-04-24T06:22:49;5.60;;;3.15;;
48805;SDS011;34625;47.176;27.548;2023-04-24T06:25:15;3.63;;;3.15;;
48805;SDS011;34625;47.176;27.548;2023-04-24T06:27:42;6.50;;;4.00;;
48805;SDS011;34625;47.176;27.548;2023-04-24T06:30:08;3.20;;;2.88;;
48805;SDS011;34625;47.176;27.548;2023-04-24T06:32:35;5.35;;;3.28;;
48805;SDS011;34625;47.176;27.548;2023-04-24T06:35:01;3.42;;;3.13;;
48805;SDS011;34625;47.176;27.548;2023-04-24T06:37:27;5.13;;;3.30;;
48805;SDS011;34625;47.176;27.548;2023-04-24T06:39:53;5.40;;;3.97;;
48805;SDS011;34625;47.176;27.548;2023-04-24T06:42:19;5.50;;;3.88;;
48805;SDS011;34625;47.176;27.548;2023-04-24T06:44:48;5.15;;;2.67;;
48805;SDS011;34625;47.176;27.548;2023-04-24T06:47:15;6.57;;;3.35;;
48805;SDS011;34625;47.176;27.548;2023-04-24T06:49:41;5.63;;;3.10;;
48805;SDS011;34625;47.176;27.548;2023-04-24T06:52:07;5.47;;;3.70;;
48805;SDS011;34625;47.176;27.548;2023-04-24T06:54:33;4.85;;;4.28;;
48805;SDS011;34625;47.176;27.548;2023-04-24T06:56:59;4.53;;;3.47;;
48805;SDS011;34625;47.176;27.548;2023-04-24T06:59:26;5.07;;;2.97;;
48805;SDS011;34625;47.176;27.548;2023-04-24T07:01:53;7.60;;;3.60;;
48805;SDS011;34625;47.176;27.548;2023-04-24T07:04:20;8.38;;;3.88;;
48805;SDS011;34625;47.176;27.548;2023-04-24T07:06:46;5.03;;;3.17;;
48805;SDS011;34625;47.176;27.548;2023-04-24T07:09:13;10.70;;;3.13;;
48805;SDS011;34625;47.176;27.548;2023-04-24T07:11:39;7.18;;;3.10;;
48805;SDS011;34625;47.176;27.548;2023-04-24T07:14:06;2.40;;;2.20;;
48805;SDS011;34625;47.176;27.548;2023-04-24T07:16:32;8.02;;;2.80;;
48805;SDS011;34625;47.176;27.548;2023-04-24T07:18:58;7.05;;;2.70;;
48805;SDS011;34625;47.176;27.548;2023-04-24T07:21:24;2.80;;;1.77;;
48805;SDS011;34625;47.176;27.548;2023-04-24T07:23:51;6.95;;;2.58;;
48805;SDS011;34625;47.176;27.548;2023-04-24T07:26:17;3.33;;;2.55;;
48805;SDS011;34625;47.176;27.548;2023-04-24T07:28:43;3.72;;;2.33;;
48805;SDS011;34625;47.176;27.548;2023-04-24T07:31:10;2.78;;;2.15;;
48805;SDS011;34625;47.176;27.548;2023-04-24T07:33:37;4.85;;;2.42;;
48805;SDS011;34625;47.176;27.548;2023-04-24T07:36:03;4.18;;;2.03;;
48805;SDS011;34625;47.176;27.548;2023-04-24T07:38:30;1.20;;;1.10;;
48805;SDS011;34625;47.176;27.548;2023-04-24T07:40:56;12.07;;;3.08;;
48805;SDS011;34625;47.176;27.548;2023-04-24T07:43:22;4.43;;;2.70;;
48805;SDS011;34625;47.176;27.548;2023-04-24T07:45:52;5.75;;;3.17;;
48805;SDS011;34625;47.176;27.548;2023-04-24T07:48:18;8.07;;;5.30;;
48805;SDS011;34625;47.176;27.548;2023-04-24T07:50:44;12.70;;;5.65;;
48805;SDS011;34625;47.176;27.548;2023-04-24T07:53:10;13.13;;;9.07;;
48805;SDS011;34625;47.176;27.548;2023-04-24T07:55:37;14.30;;;8.13;;
48805;SDS011;34625;47.176;27.548;2023-04-24T07:58:03;10.27;;;5.30;;
48805;SDS011;34625;47.176;27.548;2023-04-24T08:00:29;18.27;;;12.00;;
48805;SDS011;34625;47.176;27.548;2023-04-24T08:02:55;15.38;;;8.82;;
48805;SDS011;34625;47.176;27.548;2023-04-24T08:05:22;9.70;;;5.45;;
48805;SDS011;34625;47.176;27.548;2023-04-24T08:07:48;9.32;;;5.90;;
48805;SDS011;34625;47.176;27.548;2023-04-24T08:10:15;12.77;;;6.35;;
48805;SDS011;34625;47.176;27.548;2023-04-24T08:12:41;9.10;;;6.10;;
48805;SDS011;34625;47.176;27.548;2023-04-24T08:15:07;1.98;;;1.85;;
48805;SDS011;34625;47.176;27.548;2023-04-24T08:17:34;4.38;;;2.75;;
48805;SDS011;34625;47.176;27.548;2023-04-24T08:20:01;10.30;;;3.50;;
48805;SDS011;34625;47.176;27.548;2023-04-24T08:22:29;6.30;;;4.00;;
48805;SDS011;34625;47.176;27.548;2023-04-24T08:24:56;7.88;;;3.33;;
48805;SDS011;34625;47.176;27.548;2023-04-24T08:27:25;2.78;;;2.30;;
48805;SDS011;34625;47.176;27.548;2023-04-24T08:29:54;3.78;;;2.45;;
48805;SDS011;34625;47.176;27.548;2023-04-24T08:32:20;2.80;;;2.40;;
48805;SDS011;34625;47.176;27.548;2023-04-24T08:34:47;4.70;;;3.17;;
48805;SDS011;34625;47.176;27.548;2023-04-24T08:37:13;4.43;;;1.80;;
48805;SDS011;34625;47.176;27.548;2023-04-24T08:39:39;3.03;;;2.40;;
48805;SDS011;34625;47.176;27.548;2023-04-24T08:42:05;1.40;;;1.30;;
48805;SDS011;34625;47.176;27.548;2023-04-24T08:44:33;2.60;;;2.20;;
48805;SDS011;34625;47.176;27.548;2023-04-24T08:47:04;2.70;;;2.47;;
48805;SDS011;34625;47.176;27.548;2023-04-24T08:49:31;2.72;;;2.47;;
48805;SDS011;34625;47.176;27.548;2023-04-24T08:51:58;4.05;;;1.50;;
48805;SDS011;34625;47.176;27.548;2023-04-24T08:54:25;3.60;;;2.45;;
48805;SDS011;34625;47.176;27.548;2023-04-24T08:56:53;1.73;;;1.08;;
48805;SDS011;34625;47.176;27.548;2023-04-24T08:59:20;3.13;;;1.33;;
48805;SDS011;34625;47.176;27.548;2023-04-24T09:01:47;2.00;;;1.85;;
48805;SDS011;34625;47.176;27.548;2023-04-24T09:04:15;2.75;;;2.35;;
48805;SDS011;34625;47.176;27.548;2023-04-24T09:06:43;2.10;;;1.90;;
48805;SDS011;34625;47.176;27.548;2023-04-24T09:09:09;1.88;;;1.75;;
48805;SDS011;34625;47.176;27.548;2023-04-24T09:11:37;2.00;;;1.83;;
48805;SDS011;34625;47.176;27.548;2023-04-24T09:14:03;2.90;;;2.13;;
48805;SDS011;34625;47.176;27.548;2023-04-24T09:16:29;5.38;;;3.33;;
48805;SDS011;34625;47.176;27.548;2023-04-24T09:18:58;2.40;;;2.13;;
48805;SDS011;34625;47.176;27.548;2023-04-24T09:21:24;2.50;;;2.30;;
48805;SDS011;34625;47.176;27.548;2023-04-24T09:24:14;1.50;;;1.40;;
48805;SDS011;34625;47.176;27.548;2023-04-24T09:26:48;9.88;;;2.80;;
48805;SDS011;34625;47.176;27.548;2023-04-24T09:29:18;4.32;;;2.25;;
48805;SDS011;34625;47.176;27.548;2023-04-24T09:31:44;3.88;;;2.58;;
48805;SDS011;34625;47.176;27.548;2023-04-24T09:34:11;9.50;;;4.07;;
48805;SDS011;34625;47.176;27.548;2023-04-24T09:36:38;5.53;;;2.22;;
48805;SDS011;34625;47.176;27.548;2023-04-24T09:39:07;2.85;;;2.53;;
48805;SDS011;34625;47.176;27.548;2023-04-24T09:41:43;3.42;;;2.25;;
48805;SDS011;34625;47.176;27.548;2023-04-24T09:44:24;6.68;;;2.90;;
48805;SDS011;34625;47.176;27.548;2023-04-24T09:46:55;6.18;;;2.65;;
48805;SDS011;34625;47.176;27.548;2023-04-24T09:49:26;5.80;;;2.75;;
48805;SDS011;34625;47.176;27.548;2023-04-24T09:52:05;7.63;;;2.97;;
48805;SDS011;34625;47.176;27.548;2023-04-24T09:54:32;6.28;;;2.50;;
48805;SDS011;34625;47.176;27.548;2023-04-24T09:56:58;4.00;;;3.22;;
48805;SDS011;34625;47.176;27.548;2023-04-24T09:59:27;7.55;;;3.50;;
48805;SDS011;34625;47.176;27.548;2023-04-24T10:01:54;7.50;;;3.88;;
48805;SDS011;34625;47.176;27.548;2023-04-24T10:04:22;5.05;;;3.05;;
48805;SDS011;34625;47.176;27.548;2023-04-24T10:06:50;5.30;;;2.70;;
48805;SDS011;34625;47.176;27.548;2023-04-24T10:09:18;3.38;;;2.90;;
48805;SDS011;34625;47.176;27.548;2023-04-24T10:11:45;4.68;;;2.45;;
48805;SDS011;34625;47.176;27.548;2023-04-24T10:14:13;3.83;;;2.15;;
48805;SDS011;34625;47.176;27.548;2023-04-24T10:16:44;5.43;;;2.33;;
48805;SDS011;34625;47.176;27.548;2023-04-24T10:19:12;6.70;;;2.33;;
48805;SDS011;34625;47.176;27.548;2023-04-24T10:21:40;3.80;;;2.47;;
48805;SDS011;34625;47.176;27.548;2023-04-24T10:24:08;2.97;;;1.58;;
48805;SDS011;34625;47.176;27.548;2023-04-24T10:26:35;4.30;;;1.92;;
48805;SDS011;34625;47.176;27.548;2023-04-24T10:29:02;3.72;;;2.60;;
48805;SDS011;34625;47.176;27.548;2023-04-24T10:31:35;3.92;;;2.80;;
48805;SDS011;34625;47.176;27.548;2023-04-24T10:34:03;3.08;;;2.58;;
48805;SDS011;34625;47.176;27.548;2023-04-24T10:36:31;6.43;;;2.78;;
48805;SDS011;34625;47.176;27.548;2023-04-24T10:39:02;5.18;;;2.63;;
48805;SDS011;34625;47.176;27.548;2023-04-24T10:41:36;6.05;;;2.90;;
48805;SDS011;34625;47.176;27.548;2023-04-24T10:46:38;8.07;;;2.35;;
48805;SDS011;34625;47.176;27.548;2023-04-24T10:49:06;4.07;;;2.33;;
48805;SDS011;34625;47.176;27.548;2023-04-24T10:51:46;3.65;;;2.33;;
48805;SDS011;34625;47.176;27.548;2023-04-24T10:54:21;7.22;;;3.03;;
48805;SDS011;34625;47.176;27.548;2023-04-24T10:56:52;5.50;;;1.67;;
48805;SDS011;34625;47.176;27.548;2023-04-24T10:59:25;2.72;;;2.30;;
48805;SDS011;34625;47.176;27.548;2023-04-24T11:01:52;5.20;;;2.30;;
48805;SDS011;34625;47.176;27.548;2023-04-24T11:04:32;6.18;;;2.53;;
48805;SDS011;34625;47.176;27.548;2023-04-24T11:06:59;4.63;;;2.42;;
48805;SDS011;34625;47.176;27.548;2023-04-24T11:09:30;3.33;;;2.38;;
48805;SDS011;34625;47.176;27.548;2023-04-24T11:12:09;7.97;;;2.25;;
48805;SDS011;34625;47.176;27.548;2023-04-24T11:17:31;3.85;;;2.42;;
48805;SDS011;34625;47.176;27.548;2023-04-24T11:20:06;2.97;;;2.67;;
48805;SDS011;34625;47.176;27.548;2023-04-24T11:22:37;5.80;;;2.15;;
48805;SDS011;34625;47.176;27.548;2023-04-24T11:25:05;1.25;;;1.15;;
48805;SDS011;34625;47.176;27.548;2023-04-24T11:27:38;3.10;;;2.38;;
48805;SDS011;34625;47.176;27.548;2023-04-24T11:30:05;4.53;;;2.83;;
48805;SDS011;34625;47.176;27.548;2023-04-24T11:35:00;5.32;;;2.25;;
48805;SDS011;34625;47.176;27.548;2023-04-24T11:37:33;3.85;;;2.65;;
48805;SDS011;34625;47.176;27.548;2023-04-24T11:40:04;10.32;;;2.80;;
48805;SDS011;34625;47.176;27.548;2023-04-24T11:42:34;7.22;;;2.85;;
48805;SDS011;34625;47.176;27.548;2023-04-24T11:45:01;3.67;;;2.60;;
48805;SDS011;34625;47.176;27.548;2023-04-24T11:47:32;5.75;;;2.38;;
48805;SDS011;34625;47.176;27.548;2023-04-24T11:49:59;3.78;;;1.77;;
48805;SDS011;34625;47.176;27.548;2023-04-24T11:52:26;2.45;;;2.10;;
48805;SDS011;34625;47.176;27.548;2023-04-24T11:54:52;4.25;;;2.30;;
48805;SDS011;34625;47.176;27.548;2023-04-24T11:57:19;2.97;;;2.33;;
48805;SDS011;34625;47.176;27.548;2023-04-24T11:59:46;4.32;;;2.13;;
48805;SDS011;34625;47.176;27.548;2023-04-24T12:04:52;3.38;;;2.40;;
48805;SDS011;34625;47.176;27.548;2023-04-24T12:07:18;4.57;;;2.00;;
48805;SDS011;34625;47.176;27.548;2023-04-24T12:12:23;3.17;;;2.20;;
48805;SDS011;34625;47.176;27.548;2023-04-24T12:14:55;2.75;;;1.55;;
48805;SDS011;34625;47.176;27.548;2023-04-24T12:17:32;5.47;;;1.77;;
48805;SDS011;34625;47.176;27.548;2023-04-24T12:20:00;8.95;;;3.00;;
48805;SDS011;34625;47.176;27.548;2023-04-24T12:22:28;3.03;;;2.25;;
48805;SDS011;34625;47.176;27.548;2023-04-24T12:25:09;2.22;;;2.05;;
48805;SDS011;34625;47.176;27.548;2023-04-24T12:27:36;2.63;;;1.98;;
48805;SDS011;34625;47.176;27.548;2023-04-24T12:30:03;4.32;;;1.95;;
48805;SDS011;34625;47.176;27.548;2023-04-24T12:32:31;4.13;;;2.03;;
48805;SDS011;34625;47.176;27.548;2023-04-24T12:34:57;1.80;;;1.70;;
48805;SDS011;34625;47.176;27.548;2023-04-24T12:37:24;2.15;;;2.03;;
48805;SDS011;34625;47.176;27.548;2023-04-24T12:42:36;4.07;;;2.83;;
48805;SDS011;34625;47.176;27.548;2023-04-24T12:45:11;3.33;;;2.78;;
48805;SDS011;34625;47.176;27.548;2023-04-24T12:47:38;0.60;;;0.60;;
48805;SDS011;34625;47.176;27.548;2023-04-24T12:50:13;2.63;;;1.83;;
48805;SDS011;34625;47.176;27.548;2023-04-24T12:52:40;4.13;;;1.98;;
48805;SDS011;34625;47.176;27.548;2023-04-24T12:55:07;3.17;;;2.42;;
48805;SDS011;34625;47.176;27.548;2023-04-24T12:57:35;6.50;;;3.20;;
48805;SDS011;34625;47.176;27.548;2023-04-24T13:00:02;2.42;;;2.22;;
48805;SDS011;34625;47.176;27.548;2023-04-24T13:02:31;6.68;;;2.33;;
48805;SDS011;34625;47.176;27.548;2023-04-24T13:04:57;3.22;;;1.80;;
48805;SDS011;34625;47.176;27.548;2023-04-24T13:07:24;7.55;;;2.53;;
48805;SDS011;34625;47.176;27.548;2023-04-24T13:09:51;4.03;;;2.50;;
48805;SDS011;34625;47.176;27.548;2023-04-24T13:12:18;4.68;;;2.28;;
48805;SDS011;34625;47.176;27.548;2023-04-24T13:14:45;3.47;;;2.30;;
48805;SDS011;34625;47.176;27.548;2023-04-24T13:17:12;2.72;;;1.90;;
48805;SDS011;34625;47.176;27.548;2023-04-24T13:19:40;4.13;;;2.25;;
48805;SDS011;34625;47.176;27.548;2023-04-24T13:22:09;2.53;;;2.33;;
48805;SDS011;34625;47.176;27.548;2023-04-24T13:24:36;1.88;;;1.20;;
48805;SDS011;34625;47.176;27.548;2023-04-24T13:27:03;3.55;;;2.30;;
48805;SDS011;34625;47.176;27.548;2023-04-24T13:29:29;2.75;;;2.55;;
48805;SDS011;34625;47.176;27.548;2023-04-24T13:31:55;3.75;;;1.80;;
48805;SDS011;34625;47.176;27.548;2023-04-24T13:34:22;5.68;;;1.92;;
48805;SDS011;34625;47.176;27.548;2023-04-24T13:36:50;2.60;;;1.58;;
48805;SDS011;34625;47.176;27.548;2023-04-24T13:39:16;4.68;;;1.50;;
48805;SDS011;34625;47.176;27.548;2023-04-24T13:41:42;4.40;;;1.75;;
48805;SDS011;34625;47.176;27.548;2023-04-24T13:44:08;2.08;;;1.92;;
48805;SDS011;34625;47.176;27.548;2023-04-24T13:46:35;2.70;;;1.85;;
48805;SDS011;34625;47.176;27.548;2023-04-24T13:49:01;2.47;;;2.28;;
48805;SDS011;34625;47.176;27.548;2023-04-24T13:51:28;3.05;;;1.70;;
48805;SDS011;34625;47.176;27.548;2023-04-24T13:53:55;4.70;;;1.92;;
48805;SDS011;34625;47.176;27.548;2023-04-24T13:56:22;8.32;;;2.40;;
48805;SDS011;34625;47.176;27.548;2023-04-24T13:58:48;5.82;;;2.28;;
48805;SDS011;34625;47.176;27.548;2023-04-24T14:01:14;3.15;;;2.30;;
48805;SDS011;34625;47.176;27.548;2023-04-24T14:03:41;2.13;;;1.90;;
48805;SDS011;34625;47.176;27.548;2023-04-24T14:06:08;1.10;;;1.08;;
48805;SDS011;34625;47.176;27.548;2023-04-24T14:08:34;4.03;;;2.63;;
48805;SDS011;34625;47.176;27.548;2023-04-24T14:11:00;4.13;;;2.78;;
48805;SDS011;34625;47.176;27.548;2023-04-24T14:13:27;3.08;;;2.30;;
48805;SDS011;34625;47.176;27.548;2023-04-24T14:15:53;4.90;;;2.20;;
48805;SDS011;34625;47.176;27.548;2023-04-24T14:18:19;2.65;;;2.00;;
48805;SDS011;34625;47.176;27.548;2023-04-24T14:20:45;3.35;;;2.10;;
48805;SDS011;34625;47.176;27.548;2023-04-24T14:23:11;3.25;;;1.98;;
48805;SDS011;34625;47.176;27.548;2023-04-24T14:25:37;2.97;;;2.03;;
48805;SDS011;34625;47.176;27.548;2023-04-24T14:28:03;2.63;;;2.13;;
48805;SDS011;34625;47.176;27.548;2023-04-24T14:30:30;5.30;;;2.42;;
48805;SDS011;34625;47.176;27.548;2023-04-24T14:32:56;5.18;;;2.13;;
48805;SDS011;34625;47.176;27.548;2023-04-24T14:35:22;2.30;;;2.13;;
48805;SDS011;34625;47.176;27.548;2023-04-24T14:37:48;5.07;;;2.35;;
48805;SDS011;34625;47.176;27.548;2023-04-24T14:40:15;5.13;;;2.05;;
48805;SDS011;34625;47.176;27.548;2023-04-24T14:42:41;3.05;;;1.92;;
48805;SDS011;34625;47.176;27.548;2023-04-24T14:45:07;6.05;;;2.35;;
48805;SDS011;34625;47.176;27.548;2023-04-24T14:47:33;4.47;;;2.63;;
48805;SDS011;34625;47.176;27.548;2023-04-24T14:49:59;1.70;;;1.23;;
48805;SDS011;34625;47.176;27.548;2023-04-24T14:52:25;4.00;;;2.13;;